map of OXF home
OXF - Airport
Location
City:  Oxford, Oxfordshire, England, United Kingdom
Name:London Oxford Airport
Old (Alt.):Kidlington
ICAO:EGTK
IATA:OXF

Details
Type:Airport (Aerodrome, Airfield)
Use:Public/Civil
Latitude:5150'13"N (51.836944)
Longitude:119'12"W (-1.319999)
Elevation:270 ft (82 m)
Variation:0.80W (WMM2015 magnetic declination)
0.15 annual change
Runways:2
Longest:5092 × 98 ft (1552 × 30 m), paved

Time
Time Zone:UTC+0 (DST+1)
Local Time:

Weather
METAR:EGTK 212120Z 24003KT CAVOK 16/14 Q1018

Related Locations
Nearby:
Farthest:NZBA: 11875 mi / 19111 km
Balclutha, OTA, NZ

Find:

   beyond  
but within

Other Information
Maps:
NOTAMs:
Links:
Sources:

  
  • flag of United Kingdom
  • flag of England
  

Sectional Chart

Flight Planning
at skyvector.com

Satellite Image

Google Maps Satellite view

 

Copyright © 2004-2018 Karl L. Swartz. All rights reserved.
The Great Circle Mapper name and logo are trademarks of the Great Circle Mapper.
All other trademarks mentioned herein belong to their respective owners.
Please see credits for attibutions and further copyright information.

  Follow gcmap on Facebook Follow gcmap on Twitter Follow gcmap on Google+ GCmap on LinkedIn

hCard Microformat

Geo Microformat